createdAt,value
2023-05-30T00:02:20.149Z,4.15
2023-05-30T00:04:47.251Z,4.40
2023-05-30T00:07:14.213Z,4.15
2023-05-30T00:09:41.202Z,4.35
2023-05-30T00:12:08.101Z,4.07
2023-05-30T00:14:38.094Z,4.50
2023-05-30T00:17:06.519Z,3.95
2023-05-30T00:19:33.354Z,4.00
2023-05-30T00:22:00.130Z,4.15
2023-05-30T00:24:27.195Z,4.72
2023-05-30T00:26:53.879Z,4.43
2023-05-30T00:29:20.745Z,3.80
2023-05-30T00:31:47.752Z,4.18
2023-05-30T00:34:14.405Z,3.70
2023-05-30T00:36:41.024Z,4.15
2023-05-30T00:39:08.467Z,4.30
2023-05-30T00:41:35.156Z,4.43
2023-05-30T00:44:02.901Z,4.13
2023-05-30T00:46:31.143Z,3.97
2023-05-30T00:48:58.883Z,3.83
2023-05-30T00:51:29.331Z,4.05
2023-05-30T00:53:57.284Z,3.85
2023-05-30T00:56:24.401Z,3.63
2023-05-30T00:58:52.462Z,3.35
2023-05-30T01:01:21.534Z,4.13
2023-05-30T01:03:49.170Z,3.85
2023-05-30T01:06:16.338Z,3.33
2023-05-30T01:08:43.234Z,3.70
2023-05-30T01:11:33.160Z,4.00
2023-05-30T01:14:20.864Z,3.78
2023-05-30T01:17:12.558Z,4.05
2023-05-30T01:20:00.894Z,3.90
2023-05-30T01:22:45.873Z,4.07
2023-05-30T01:25:41.201Z,4.15
2023-05-30T01:28:11.904Z,3.80
2023-05-30T01:30:41.832Z,3.85
2023-05-30T01:33:10.040Z,4.10
2023-05-30T01:35:37.190Z,3.50
2023-05-30T01:38:04.146Z,3.30
2023-05-30T01:40:31.580Z,3.88
2023-05-30T01:43:03.151Z,3.58
2023-05-30T01:46:05.284Z,3.95
2023-05-30T01:49:10.383Z,5.65
2023-05-30T01:54:16.188Z,2.78
2023-05-30T01:56:45.662Z,3.17
2023-05-30T01:59:12.697Z,3.25
2023-05-30T02:01:41.540Z,3.20
2023-05-30T02:04:08.466Z,4.93
2023-05-30T02:06:35.199Z,3.83
2023-05-30T02:09:02.146Z,3.53
2023-05-30T02:11:29.270Z,3.42
2023-05-30T02:13:56.498Z,3.50
2023-05-30T02:16:25.735Z,7.15
2023-05-30T02:18:54.000Z,2.75
2023-05-30T02:21:21.895Z,5.20
2023-05-30T02:23:48.709Z,3.90
2023-05-30T02:26:16.188Z,4.55
2023-05-30T02:28:43.167Z,3.30
2023-05-30T02:31:09.821Z,2.40
2023-05-30T02:33:36.686Z,4.15
2023-05-30T02:36:03.552Z,6.90
2023-05-30T02:38:30.294Z,5.45
2023-05-30T02:40:57.290Z,4.30
2023-05-30T02:43:24.196Z,3.70
2023-05-30T02:45:50.800Z,4.38
2023-05-30T02:48:17.819Z,3.40
2023-05-30T02:50:44.416Z,3.85
2023-05-30T02:53:11.162Z,4.35
2023-05-30T02:55:38.350Z,3.13
2023-05-30T02:58:04.957Z,3.03
2023-05-30T03:00:31.723Z,2.90
2023-05-30T03:02:59.151Z,3.58
2023-05-30T03:05:26.608Z,2.90
2023-05-30T03:07:54.970Z,3.17
2023-05-30T03:10:21.824Z,3.00
2023-05-30T03:12:48.459Z,2.70
2023-05-30T03:15:15.199Z,2.60
2023-05-30T03:17:43.668Z,3.20
2023-05-30T03:20:11.183Z,3.10
2023-05-30T03:22:38.345Z,6.30
2023-05-30T03:25:05.601Z,3.70
2023-05-30T03:27:32.418Z,5.13
2023-05-30T03:29:59.064Z,3.20
2023-05-30T03:32:26.242Z,3.78
2023-05-30T03:34:54.035Z,3.25
2023-05-30T03:37:21.297Z,3.45
2023-05-30T03:39:48.109Z,3.03
2023-05-30T03:42:14.775Z,3.53
2023-05-30T03:44:41.462Z,6.43
2023-05-30T03:47:08.288Z,3.80
2023-05-30T03:49:34.914Z,4.60
2023-05-30T03:52:01.690Z,4.38
2023-05-30T03:54:28.528Z,4.75
2023-05-30T03:56:55.124Z,4.93
2023-05-30T03:59:23.137Z,4.68
2023-05-30T04:01:50.122Z,3.50
2023-05-30T04:04:16.815Z,3.60
2023-05-30T04:06:43.585Z,3.20
2023-05-30T04:09:10.570Z,3.00
2023-05-30T04:11:37.226Z,2.90
2023-05-30T04:14:03.916Z,3.30
2023-05-30T04:16:30.899Z,5.70
2023-05-30T04:18:57.659Z,4.07
2023-05-30T04:21:24.328Z,5.03
2023-05-30T04:23:51.227Z,9.60
2023-05-30T04:26:17.812Z,6.10
2023-05-30T04:28:45.041Z,4.28
2023-05-30T04:31:21.452Z,3.85
2023-05-30T04:33:50.038Z,4.22
2023-05-30T04:36:20.039Z,4.53
2023-05-30T04:38:51.141Z,4.10
2023-05-30T04:41:26.142Z,3.65
2023-05-30T04:43:55.844Z,6.13
2023-05-30T04:46:23.145Z,3.17
2023-05-30T04:48:54.581Z,3.33
2023-05-30T04:51:21.996Z,3.40
2023-05-30T04:53:49.568Z,3.67
2023-05-30T04:56:16.987Z,3.75
2023-05-30T04:58:48.037Z,4.30
2023-05-30T05:01:15.195Z,4.60
2023-05-30T05:03:45.855Z,4.38
2023-05-30T05:06:13.186Z,4.38
2023-05-30T05:08:39.865Z,4.22
2023-05-30T05:11:07.567Z,4.10
2023-05-30T05:13:35.112Z,4.28
2023-05-30T05:16:02.418Z,4.20
2023-05-30T05:18:29.312Z,4.00
2023-05-30T05:20:58.947Z,4.30
2023-05-30T05:23:26.280Z,4.10
2023-05-30T05:25:53.015Z,4.75
2023-05-30T05:28:20.883Z,4.38
2023-05-30T05:30:49.585Z,4.22
2023-05-30T05:33:16.993Z,4.15
2023-05-30T05:35:46.459Z,4.30
2023-05-30T05:38:14.142Z,4.20
2023-05-30T05:40:42.175Z,4.38
2023-05-30T05:43:08.875Z,4.13
2023-05-30T05:45:35.670Z,4.03
2023-05-30T05:48:02.790Z,3.60
2023-05-30T05:50:29.591Z,3.70
2023-05-30T05:52:56.288Z,5.30
2023-05-30T05:55:23.284Z,3.90
2023-05-30T05:57:50.068Z,3.90
2023-05-30T06:00:17.107Z,3.80
2023-05-30T06:02:44.068Z,3.58
2023-05-30T06:05:11.316Z,4.10
2023-05-30T06:07:38.219Z,4.00
2023-05-30T06:10:05.455Z,3.97
2023-05-30T06:12:32.824Z,3.92
2023-05-30T06:14:59.464Z,3.95
2023-05-30T06:17:27.445Z,4.18
2023-05-30T06:19:55.764Z,3.95
2023-05-30T06:22:22.935Z,4.15
2023-05-30T06:24:49.837Z,4.30
2023-05-30T06:27:16.776Z,3.80
2023-05-30T06:29:43.548Z,3.70
2023-05-30T06:32:16.144Z,3.25
2023-05-30T06:34:43.347Z,3.50
2023-05-30T06:37:11.845Z,3.33
2023-05-30T06:39:39.990Z,3.30
2023-05-30T06:42:10.770Z,3.85
2023-05-30T06:44:38.083Z,4.13
2023-05-30T06:47:05.681Z,3.08
2023-05-30T06:49:32.753Z,3.10
2023-05-30T06:51:59.616Z,3.30
2023-05-30T06:54:26.556Z,3.40
2023-05-30T06:56:53.251Z,3.65
2023-05-30T06:59:20.513Z,3.00
2023-05-30T07:01:47.823Z,3.25
2023-05-30T07:04:14.792Z,2.70
2023-05-30T07:06:42.124Z,3.00
2023-05-30T07:09:08.810Z,3.10
2023-05-30T07:11:35.546Z,3.35
2023-05-30T07:14:02.802Z,2.63
2023-05-30T07:16:29.490Z,2.95
2023-05-30T07:19:08.247Z,2.80
2023-05-30T07:21:38.978Z,2.80
2023-05-30T07:24:06.204Z,2.08
2023-05-30T07:26:33.269Z,2.80
2023-05-30T07:29:00.249Z,3.08
2023-05-30T07:31:27.105Z,3.00
2023-05-30T07:33:53.791Z,2.75
2023-05-30T07:36:20.853Z,3.05
2023-05-30T07:38:47.519Z,2.22
2023-05-30T07:41:14.256Z,2.33
2023-05-30T07:43:41.272Z,2.85
2023-05-30T07:46:08.007Z,2.13
2023-05-30T07:48:34.728Z,2.13
2023-05-30T07:51:01.557Z,2.83
2023-05-30T07:53:28.436Z,2.30
2023-05-30T07:55:55.230Z,2.17
2023-05-30T07:58:23.953Z,2.42
2023-05-30T08:00:50.970Z,2.10
2023-05-30T08:03:17.725Z,3.13
2023-05-30T08:05:48.079Z,4.93
2023-05-30T08:08:14.846Z,4.45
2023-05-30T08:10:41.592Z,3.80
2023-05-30T08:13:08.683Z,2.05
2023-05-30T08:15:35.712Z,2.35
2023-05-30T08:18:03.388Z,2.28
2023-05-30T08:20:30.933Z,2.58
2023-05-30T08:22:57.923Z,1.90
2023-05-30T08:25:33.539Z,2.10
2023-05-30T08:28:00.947Z,1.67
2023-05-30T08:30:27.732Z,1.92
2023-05-30T08:32:55.034Z,2.03
2023-05-30T08:35:22.157Z,2.00
2023-05-30T08:37:48.874Z,1.85
2023-05-30T08:40:17.509Z,1.80
2023-05-30T08:42:44.300Z,2.10
2023-05-30T08:45:12.565Z,1.70
2023-05-30T08:47:39.993Z,1.73
2023-05-30T08:50:10.686Z,2.00
2023-05-30T08:52:39.616Z,1.95
2023-05-30T08:55:16.116Z,2.08
2023-05-30T08:57:55.400Z,2.00
2023-05-30T09:00:23.979Z,2.13
2023-05-30T09:02:55.216Z,2.00
2023-05-30T09:05:22.282Z,1.75
2023-05-30T09:07:55.383Z,1.90
2023-05-30T09:10:22.600Z,1.63
2023-05-30T09:12:49.251Z,1.55
2023-05-30T09:15:17.287Z,1.95
2023-05-30T09:17:44.433Z,2.10
2023-05-30T09:20:17.417Z,1.90
2023-05-30T09:22:46.371Z,1.83
2023-05-30T09:25:16.833Z,2.15
2023-05-30T09:27:55.376Z,2.25
2023-05-30T09:30:22.095Z,2.20
2023-05-30T09:33:04.970Z,2.08
2023-05-30T09:35:31.950Z,1.90
2023-05-30T09:38:04.734Z,2.40
2023-05-30T09:40:31.691Z,2.08
2023-05-30T09:42:58.316Z,2.13
2023-05-30T09:45:25.736Z,2.05
2023-05-30T09:47:55.420Z,2.00
2023-05-30T09:50:24.585Z,2.20
2023-05-30T09:52:56.467Z,1.90
2023-05-30T09:55:25.817Z,2.05
2023-05-30T09:57:53.451Z,2.10
2023-05-30T10:00:26.405Z,1.90
2023-05-30T10:02:55.714Z,2.23
2023-05-30T10:05:23.660Z,2.20
2023-05-30T10:07:52.612Z,2.25
2023-05-30T10:10:19.997Z,2.30
2023-05-30T10:12:55.284Z,2.33
2023-05-30T10:15:27.286Z,2.20
2023-05-30T10:18:08.979Z,2.50
2023-05-30T10:20:43.014Z,2.30
2023-05-30T10:23:10.584Z,2.25
2023-05-30T10:25:42.462Z,2.47
2023-05-30T10:28:13.537Z,2.25
2023-05-30T10:30:41.205Z,2.50
2023-05-30T10:33:12.605Z,2.20
2023-05-30T10:35:39.640Z,2.30
2023-05-30T10:38:09.001Z,2.10
2023-05-30T10:41:12.471Z,2.17
2023-05-30T10:43:57.796Z,2.50
2023-05-30T10:47:16.039Z,2.28
2023-05-30T10:49:43.004Z,2.05
2023-05-30T10:52:11.510Z,2.22
2023-05-30T10:54:38.862Z,2.17
2023-05-30T10:57:33.430Z,2.35
2023-05-30T11:00:38.959Z,1.95
2023-05-30T11:03:06.048Z,2.22
2023-05-30T11:05:37.426Z,2.60
2023-05-30T11:08:04.583Z,2.03
2023-05-30T11:10:32.991Z,2.45
2023-05-30T11:13:15.760Z,2.08
2023-05-30T11:15:49.725Z,2.10
2023-05-30T11:18:17.770Z,2.40
2023-05-30T11:20:57.559Z,2.38
2023-05-30T11:23:26.094Z,2.08
2023-05-30T11:25:57.320Z,2.15
2023-05-30T11:28:36.418Z,2.63
2023-05-30T11:31:17.962Z,2.10
2023-05-30T11:33:47.515Z,2.22
2023-05-30T11:36:14.898Z,2.40
2023-05-30T11:38:47.382Z,2.13
2023-05-30T11:41:17.670Z,2.25
2023-05-30T11:43:45.233Z,2.17
2023-05-30T11:46:14.032Z,2.17
2023-05-30T11:48:41.596Z,2.10
2023-05-30T11:51:10.078Z,2.15
2023-05-30T11:53:37.111Z,1.92
2023-05-30T11:56:04.009Z,3.05
2023-05-30T11:58:30.811Z,2.17
2023-05-30T12:00:58.086Z,2.15
2023-05-30T12:03:25.387Z,2.30
2023-05-30T12:05:52.789Z,2.20
2023-05-30T12:08:19.943Z,2.30
2023-05-30T12:10:50.245Z,2.38
2023-05-30T12:13:19.048Z,2.40
2023-05-30T12:15:46.059Z,2.20
2023-05-30T12:18:13.314Z,2.17
2023-05-30T12:20:45.245Z,2.50
2023-05-30T12:23:12.311Z,2.75
2023-05-30T12:25:48.183Z,2.42
2023-05-30T12:28:20.071Z,2.40
2023-05-30T12:30:46.772Z,2.50
2023-05-30T12:33:17.850Z,2.55
2023-05-30T12:35:46.133Z,2.58
2023-05-30T12:38:15.400Z,2.30
2023-05-30T12:40:51.732Z,2.53
2023-05-30T12:43:27.692Z,2.85
2023-05-30T12:45:59.022Z,2.15
2023-05-30T12:48:25.731Z,2.53
2023-05-30T12:50:53.609Z,2.30
2023-05-30T12:53:20.406Z,2.42
2023-05-30T12:55:47.081Z,2.40
2023-05-30T12:58:13.687Z,2.35
2023-05-30T13:00:40.513Z,2.17
2023-05-30T13:03:07.307Z,2.50
2023-05-30T13:05:34.138Z,3.00
2023-05-30T13:08:01.061Z,2.47
2023-05-30T13:10:28.239Z,3.03
2023-05-30T13:12:55.223Z,2.55
2023-05-30T13:15:22.116Z,2.40
2023-05-30T13:17:48.900Z,2.80
2023-05-30T13:20:15.710Z,2.30
2023-05-30T13:22:42.490Z,2.80
2023-05-30T13:25:09.438Z,2.40
2023-05-30T13:27:36.050Z,2.60
2023-05-30T13:30:02.925Z,2.47
2023-05-30T13:32:29.607Z,2.70
2023-05-30T13:34:56.396Z,2.70
2023-05-30T13:37:23.352Z,2.38
2023-05-30T13:39:50.406Z,2.75
2023-05-30T13:42:17.647Z,2.47
2023-05-30T13:44:44.676Z,2.30
2023-05-30T13:47:11.395Z,2.70
2023-05-30T13:49:39.200Z,2.70
2023-05-30T13:52:06.660Z,2.72
2023-05-30T13:54:33.464Z,2.65
2023-05-30T13:57:00.208Z,2.75
2023-05-30T13:59:28.029Z,2.80
2023-05-30T14:01:55.365Z,2.40
2023-05-30T14:04:22.242Z,3.28
2023-05-30T14:06:52.252Z,3.25
2023-05-30T14:09:23.072Z,3.50
2023-05-30T14:11:50.626Z,3.40
2023-05-30T14:14:21.615Z,3.40
2023-05-30T14:16:48.396Z,3.70
2023-05-30T14:19:15.384Z,3.25
2023-05-30T14:21:43.085Z,3.28
2023-05-30T14:24:09.805Z,3.22
2023-05-30T14:26:36.570Z,3.60
2023-05-30T14:29:04.006Z,3.60
2023-05-30T14:31:31.043Z,3.70
2023-05-30T14:33:57.956Z,3.35
2023-05-30T14:36:25.025Z,3.80
2023-05-30T14:38:51.639Z,3.50
2023-05-30T14:41:18.275Z,3.65
2023-05-30T14:43:45.005Z,3.58
2023-05-30T14:46:11.961Z,3.67
2023-05-30T14:48:38.837Z,3.30
2023-05-30T14:51:06.279Z,3.53
2023-05-30T14:53:32.943Z,3.38
2023-05-30T14:56:00.436Z,3.72
2023-05-30T14:58:27.441Z,3.80
2023-05-30T15:00:54.662Z,3.80
2023-05-30T15:03:22.327Z,3.30
2023-05-30T15:05:52.229Z,3.60
2023-05-30T15:08:18.911Z,3.38
2023-05-30T15:10:45.553Z,3.70
2023-05-30T15:13:12.519Z,3.63
2023-05-30T15:15:39.362Z,3.60
2023-05-30T15:18:06.340Z,3.88
2023-05-30T15:20:33.214Z,3.60
2023-05-30T15:22:59.876Z,3.70
2023-05-30T15:25:27.078Z,3.40
2023-05-30T15:27:55.459Z,3.53
2023-05-30T15:30:22.263Z,3.60
2023-05-30T15:32:49.045Z,3.83
2023-05-30T15:35:16.120Z,3.40
2023-05-30T15:37:43.137Z,3.60
2023-05-30T15:40:10.242Z,3.38
2023-05-30T15:42:37.316Z,3.92
2023-05-30T15:45:07.556Z,3.72
2023-05-30T15:47:34.332Z,3.70
2023-05-30T15:50:01.143Z,3.60
2023-05-30T15:52:27.825Z,3.90
2023-05-30T15:54:57.037Z,3.53
2023-05-30T15:57:25.233Z,3.50
2023-05-30T15:59:52.467Z,3.83
2023-05-30T16:02:19.321Z,3.72
2023-05-30T16:04:46.432Z,3.40
2023-05-30T16:07:16.835Z,3.15
2023-05-30T16:09:45.711Z,3.38
2023-05-30T16:12:12.598Z,2.92
2023-05-30T16:14:39.213Z,3.03
2023-05-30T16:17:06.155Z,3.03
2023-05-30T16:19:33.238Z,2.88
2023-05-30T16:21:59.916Z,3.00
2023-05-30T16:24:26.636Z,2.75
2023-05-30T16:26:54.498Z,2.72
2023-05-30T16:29:21.257Z,2.50
2023-05-30T16:31:47.869Z,3.25
2023-05-30T16:34:15.648Z,2.83
2023-05-30T16:36:45.044Z,2.83
2023-05-30T16:39:13.286Z,2.88
2023-05-30T16:41:40.737Z,3.00
2023-05-30T16:44:07.613Z,3.60
2023-05-30T16:46:35.101Z,3.40
2023-05-30T16:49:02.122Z,3.20
2023-05-30T16:51:28.815Z,2.90
2023-05-30T16:53:55.442Z,3.50
2023-05-30T16:56:23.073Z,4.05
2023-05-30T16:58:52.447Z,4.22
2023-05-30T17:01:19.683Z,3.28
2023-05-30T17:03:48.026Z,3.88
2023-05-30T17:06:16.837Z,4.40
2023-05-30T17:08:43.679Z,4.30
2023-05-30T17:11:13.126Z,4.53
2023-05-30T17:13:40.068Z,5.25
2023-05-30T17:16:08.850Z,3.80
2023-05-30T17:18:36.328Z,4.20
2023-05-30T17:21:03.418Z,3.53
2023-05-30T17:23:31.900Z,3.50
2023-05-30T17:26:03.257Z,2.97
2023-05-30T17:28:31.040Z,2.95
2023-05-30T17:30:59.012Z,2.80
2023-05-30T17:33:26.397Z,5.57
2023-05-30T17:35:56.137Z,3.80
2023-05-30T17:38:23.112Z,5.32
2023-05-30T17:40:49.960Z,4.38
2023-05-30T17:43:17.791Z,3.42
2023-05-30T17:45:44.925Z,3.50
2023-05-30T17:48:12.398Z,5.20
2023-05-30T17:50:39.921Z,3.97
2023-05-30T17:53:07.460Z,3.38
2023-05-30T17:55:35.215Z,5.80
2023-05-30T17:58:02.604Z,3.70
2023-05-30T18:00:30.984Z,3.30
2023-05-30T18:02:58.778Z,3.55
2023-05-30T18:05:25.862Z,3.40
2023-05-30T18:07:55.545Z,3.83
2023-05-30T18:10:22.427Z,4.40
2023-05-30T18:12:49.112Z,6.38
2023-05-30T18:15:15.995Z,6.22
2023-05-30T18:17:42.892Z,4.85
2023-05-30T18:20:10.154Z,4.75
2023-05-30T18:22:36.961Z,3.95
2023-05-30T18:25:04.139Z,4.57
2023-05-30T18:27:31.122Z,4.28
2023-05-30T18:29:58.176Z,4.28
2023-05-30T18:32:25.591Z,4.32
2023-05-30T18:34:52.389Z,4.07
2023-05-30T18:37:20.046Z,4.30
2023-05-30T18:39:49.168Z,3.95
2023-05-30T18:42:16.062Z,4.78
2023-05-30T18:44:42.724Z,4.18
2023-05-30T18:47:10.179Z,3.97
2023-05-30T18:49:37.555Z,3.70
2023-05-30T18:52:04.556Z,4.13
2023-05-30T18:54:31.847Z,4.20
2023-05-30T18:56:58.886Z,4.40
2023-05-30T18:59:25.605Z,4.35
2023-05-30T19:01:52.631Z,4.32
2023-05-30T19:04:19.752Z,4.30
2023-05-30T19:06:46.394Z,3.75
2023-05-30T19:09:13.288Z,4.38
2023-05-30T19:11:39.912Z,3.85
2023-05-30T19:14:06.874Z,4.20
2023-05-30T19:16:33.958Z,4.85
2023-05-30T19:19:00.607Z,4.43
2023-05-30T19:21:27.427Z,4.68
2023-05-30T19:23:54.439Z,4.50
2023-05-30T19:26:22.236Z,4.43
2023-05-30T19:28:50.456Z,4.93
2023-05-30T19:31:17.434Z,4.93
2023-05-30T19:33:45.193Z,4.60
2023-05-30T19:36:12.090Z,5.00
2023-05-30T19:38:39.483Z,4.72
2023-05-30T19:41:09.234Z,4.55
2023-05-30T19:43:36.633Z,4.55
2023-05-30T19:46:08.353Z,4.85
2023-05-30T19:48:35.435Z,5.43
2023-05-30T19:51:02.272Z,4.90
2023-05-30T19:53:29.579Z,5.03
2023-05-30T19:55:56.357Z,4.70
2023-05-30T19:58:24.366Z,4.55
2023-05-30T20:00:51.895Z,4.30
2023-05-30T20:03:19.437Z,4.43
2023-05-30T20:05:47.000Z,4.90
2023-05-30T20:08:13.968Z,4.30
2023-05-30T20:10:40.838Z,4.63
2023-05-30T20:13:07.585Z,5.45
2023-05-30T20:15:34.343Z,4.70
2023-05-30T20:18:02.398Z,4.60
2023-05-30T20:20:30.315Z,4.32
2023-05-30T20:22:57.904Z,4.43
2023-05-30T20:25:25.146Z,4.72
2023-05-30T20:27:52.491Z,5.00
2023-05-30T20:30:19.866Z,4.90
2023-05-30T20:32:47.164Z,5.45
2023-05-30T20:35:14.191Z,5.10
2023-05-30T20:37:41.199Z,4.82
2023-05-30T20:40:08.704Z,4.90
2023-05-30T20:42:35.501Z,5.97
2023-05-30T20:45:02.554Z,6.50
2023-05-30T20:47:30.461Z,6.50
2023-05-30T20:50:04.526Z,4.78
2023-05-30T20:54:58.644Z,5.47
2023-05-30T20:57:25.549Z,5.50
2023-05-30T20:59:53.351Z,5.45
2023-05-30T21:02:20.649Z,4.75
2023-05-30T21:04:47.562Z,5.07
2023-05-30T21:07:14.402Z,5.15
2023-05-30T21:09:41.533Z,5.13
2023-05-30T21:12:09.109Z,5.35
2023-05-30T21:14:35.806Z,5.57
2023-05-30T21:17:02.402Z,4.97
2023-05-30T21:19:29.235Z,5.40
2023-05-30T21:21:55.857Z,5.35
2023-05-30T21:24:22.504Z,5.20
2023-05-30T21:26:49.504Z,5.00
2023-05-30T21:29:16.209Z,5.05
2023-05-30T21:31:42.903Z,4.88
2023-05-30T21:34:10.076Z,5.28
2023-05-30T21:36:38.310Z,4.70
2023-05-30T21:39:06.387Z,5.15
2023-05-30T21:41:33.119Z,5.32
2023-05-30T21:44:00.003Z,4.97
2023-05-30T21:46:27.116Z,5.22
2023-05-30T21:48:54.191Z,5.95
2023-05-30T21:51:21.068Z,6.10
2023-05-30T21:53:47.775Z,5.60
2023-05-30T21:56:14.623Z,5.30
2023-05-30T21:58:41.305Z,5.70
2023-05-30T22:01:07.964Z,5.03
2023-05-30T22:03:34.980Z,5.03
2023-05-30T22:06:01.889Z,4.90
2023-05-30T22:08:28.552Z,5.63
2023-05-30T22:10:55.300Z,4.85
2023-05-30T22:13:22.638Z,5.15
2023-05-30T22:15:49.349Z,6.05
2023-05-30T22:18:16.772Z,5.63
2023-05-30T22:20:43.695Z,5.72
2023-05-30T22:23:10.433Z,5.43
2023-05-30T22:25:37.371Z,5.38
2023-05-30T22:28:04.091Z,5.07
2023-05-30T22:30:30.826Z,5.50
2023-05-30T22:32:57.581Z,5.10
2023-05-30T22:35:25.893Z,5.25
2023-05-30T22:37:52.497Z,5.70
2023-05-30T22:40:19.317Z,4.93
2023-05-30T22:42:46.138Z,4.75
2023-05-30T22:45:12.796Z,4.88
2023-05-30T22:47:40.054Z,4.95
2023-05-30T22:50:07.322Z,5.55
2023-05-30T22:52:33.976Z,4.95
2023-05-30T22:55:00.918Z,5.32
2023-05-30T22:57:27.715Z,4.72
2023-05-30T22:59:54.329Z,4.70
2023-05-30T23:02:21.618Z,5.18
2023-05-30T23:04:48.653Z,4.35
2023-05-30T23:07:15.466Z,5.68
2023-05-30T23:09:42.674Z,5.60
2023-05-30T23:12:09.722Z,4.85
2023-05-30T23:14:36.765Z,4.72
2023-05-30T23:17:03.766Z,6.00
2023-05-30T23:19:30.858Z,5.25
2023-05-30T23:21:57.783Z,5.70
2023-05-30T23:24:24.691Z,5.70
2023-05-30T23:26:51.310Z,5.65
2023-05-30T23:29:17.900Z,5.30
2023-05-30T23:31:44.783Z,5.72
2023-05-30T23:34:12.933Z,5.32
2023-05-30T23:36:39.740Z,5.47
2023-05-30T23:39:06.505Z,4.97
2023-05-30T23:41:33.186Z,5.03
2023-05-30T23:43:59.816Z,5.38
2023-05-30T23:46:26.678Z,5.18
2023-05-30T23:48:53.850Z,5.00
2023-05-30T23:51:20.992Z,5.55
2023-05-30T23:53:47.939Z,4.65
2023-05-30T23:56:14.669Z,5.13
2023-05-30T23:58:41.482Z,5.57
